sensor_id;sensor_type;location;lat;lon;timestamp;P1;durP1;ratioP1;P2;durP2;ratioP2
65377;SDS011;51982;51.042;13.806;2022-12-05T00:01:39;11.63;;;6.75;;
65377;SDS011;51982;51.042;13.806;2022-12-05T00:04:07;11.23;;;6.80;;
65377;SDS011;51982;51.042;13.806;2022-12-05T00:06:35;12.23;;;7.07;;
65377;SDS011;51982;51.042;13.806;2022-12-05T00:09:02;12.30;;;7.10;;
65377;SDS011;51982;51.042;13.806;2022-12-05T00:11:30;14.18;;;8.18;;
65377;SDS011;51982;51.042;13.806;2022-12-05T00:13:57;13.60;;;7.72;;
65377;SDS011;51982;51.042;13.806;2022-12-05T00:16:24;15.02;;;7.85;;
65377;SDS011;51982;51.042;13.806;2022-12-05T00:18:51;11.35;;;7.22;;
65377;SDS011;51982;51.042;13.806;2022-12-05T00:21:19;19.65;;;8.10;;
65377;SDS011;51982;51.042;13.806;2022-12-05T00:23:46;15.32;;;7.70;;
65377;SDS011;51982;51.042;13.806;2022-12-05T00:26:12;13.77;;;7.32;;
65377;SDS011;51982;51.042;13.806;2022-12-05T00:28:38;12.35;;;7.75;;
65377;SDS011;51982;51.042;13.806;2022-12-05T00:31:11;13.50;;;8.10;;
65377;SDS011;51982;51.042;13.806;2022-12-05T00:33:38;13.57;;;7.50;;
65377;SDS011;51982;51.042;13.806;2022-12-05T00:36:08;13.60;;;7.70;;
65377;SDS011;51982;51.042;13.806;2022-12-05T00:38:36;13.23;;;7.82;;
65377;SDS011;51982;51.042;13.806;2022-12-05T00:41:05;15.77;;;8.45;;
65377;SDS011;51982;51.042;13.806;2022-12-05T00:43:32;12.82;;;6.75;;
65377;SDS011;51982;51.042;13.806;2022-12-05T00:46:01;14.23;;;7.72;;
65377;SDS011;51982;51.042;13.806;2022-12-05T00:48:28;15.20;;;8.35;;
65377;SDS011;51982;51.042;13.806;2022-12-05T00:51:04;12.45;;;7.43;;
65377;SDS011;51982;51.042;13.806;2022-12-05T00:53:33;15.23;;;8.07;;
65377;SDS011;51982;51.042;13.806;2022-12-05T00:56:02;14.00;;;7.70;;
65377;SDS011;51982;51.042;13.806;2022-12-05T00:58:29;12.00;;;7.60;;
65377;SDS011;51982;51.042;13.806;2022-12-05T01:00:54;13.52;;;7.97;;
65377;SDS011;51982;51.042;13.806;2022-12-05T01:03:19;15.55;;;8.43;;
65377;SDS011;51982;51.042;13.806;2022-12-05T01:05:45;14.80;;;7.65;;
65377;SDS011;51982;51.042;13.806;2022-12-05T01:08:10;15.13;;;7.75;;
65377;SDS011;51982;51.042;13.806;2022-12-05T01:10:35;15.80;;;8.93;;
65377;SDS011;51982;51.042;13.806;2022-12-05T01:13:01;15.07;;;8.48;;
65377;SDS011;51982;51.042;13.806;2022-12-05T01:15:26;13.68;;;8.25;;
65377;SDS011;51982;51.042;13.806;2022-12-05T01:17:51;17.20;;;8.73;;
65377;SDS011;51982;51.042;13.806;2022-12-05T01:20:16;14.60;;;8.50;;
65377;SDS011;51982;51.042;13.806;2022-12-05T01:22:42;15.85;;;8.70;;
65377;SDS011;51982;51.042;13.806;2022-12-05T01:25:07;11.73;;;7.45;;
65377;SDS011;51982;51.042;13.806;2022-12-05T01:27:33;16.38;;;8.93;;
65377;SDS011;51982;51.042;13.806;2022-12-05T01:29:58;14.45;;;8.13;;
65377;SDS011;51982;51.042;13.806;2022-12-05T01:32:23;15.95;;;8.50;;
65377;SDS011;51982;51.042;13.806;2022-12-05T01:34:48;14.18;;;8.57;;
65377;SDS011;51982;51.042;13.806;2022-12-05T01:37:14;15.70;;;8.18;;
65377;SDS011;51982;51.042;13.806;2022-12-05T01:39:39;14.55;;;8.90;;
65377;SDS011;51982;51.042;13.806;2022-12-05T01:42:04;13.63;;;8.63;;
65377;SDS011;51982;51.042;13.806;2022-12-05T01:46:55;16.17;;;8.75;;
65377;SDS011;51982;51.042;13.806;2022-12-05T01:49:29;15.27;;;8.07;;
65377;SDS011;51982;51.042;13.806;2022-12-05T01:51:57;14.77;;;8.88;;
65377;SDS011;51982;51.042;13.806;2022-12-05T01:54:44;15.23;;;8.45;;
65377;SDS011;51982;51.042;13.806;2022-12-05T01:57:12;15.68;;;8.35;;
65377;SDS011;51982;51.042;13.806;2022-12-05T01:59:38;14.00;;;7.60;;
65377;SDS011;51982;51.042;13.806;2022-12-05T02:02:08;16.45;;;8.02;;
65377;SDS011;51982;51.042;13.806;2022-12-05T02:04:36;18.40;;;8.73;;
65377;SDS011;51982;51.042;13.806;2022-12-05T02:07:06;18.30;;;8.73;;
65377;SDS011;51982;51.042;13.806;2022-12-05T02:09:31;15.82;;;8.57;;
65377;SDS011;51982;51.042;13.806;2022-12-05T02:11:58;14.10;;;8.52;;
65377;SDS011;51982;51.042;13.806;2022-12-05T02:28:50;13.23;;;7.40;;
65377;SDS011;51982;51.042;13.806;2022-12-05T02:31:47;16.30;;;8.02;;
65377;SDS011;51982;51.042;13.806;2022-12-05T02:34:33;13.18;;;7.25;;
65377;SDS011;51982;51.042;13.806;2022-12-05T02:37:08;15.07;;;7.75;;
65377;SDS011;51982;51.042;13.806;2022-12-05T02:39:46;13.48;;;7.10;;
65377;SDS011;51982;51.042;13.806;2022-12-05T02:42:30;13.98;;;7.60;;
65377;SDS011;51982;51.042;13.806;2022-12-05T02:45:02;14.32;;;8.63;;
65377;SDS011;51982;51.042;13.806;2022-12-05T02:47:34;14.30;;;8.45;;
65377;SDS011;51982;51.042;13.806;2022-12-05T02:50:04;12.82;;;7.38;;
65377;SDS011;51982;51.042;13.806;2022-12-05T02:52:32;14.70;;;8.10;;
65377;SDS011;51982;51.042;13.806;2022-12-05T02:54:59;13.23;;;7.55;;
65377;SDS011;51982;51.042;13.806;2022-12-05T02:57:26;16.20;;;8.18;;
65377;SDS011;51982;51.042;13.806;2022-12-05T02:59:51;14.48;;;8.02;;
65377;SDS011;51982;51.042;13.806;2022-12-05T03:02:24;12.13;;;7.05;;
65377;SDS011;51982;51.042;13.806;2022-12-05T03:04:56;13.77;;;7.50;;
65377;SDS011;51982;51.042;13.806;2022-12-05T03:07:26;15.20;;;7.85;;
65377;SDS011;51982;51.042;13.806;2022-12-05T03:09:55;13.82;;;7.30;;
65377;SDS011;51982;51.042;13.806;2022-12-05T03:12:29;13.27;;;7.60;;
65377;SDS011;51982;51.042;13.806;2022-12-05T03:15:05;14.88;;;7.20;;
65377;SDS011;51982;51.042;13.806;2022-12-05T03:17:46;13.30;;;7.57;;
65377;SDS011;51982;51.042;13.806;2022-12-05T03:22:58;13.88;;;7.70;;
65377;SDS011;51982;51.042;13.806;2022-12-05T03:25:30;11.30;;;6.90;;
65377;SDS011;51982;51.042;13.806;2022-12-05T03:28:06;14.25;;;6.70;;
65377;SDS011;51982;51.042;13.806;2022-12-05T03:30:41;12.35;;;6.68;;
65377;SDS011;51982;51.042;13.806;2022-12-05T03:33:10;14.23;;;7.05;;
65377;SDS011;51982;51.042;13.806;2022-12-05T03:35:51;12.25;;;7.15;;
65377;SDS011;51982;51.042;13.806;2022-12-05T03:38:24;11.98;;;6.82;;
65377;SDS011;51982;51.042;13.806;2022-12-05T03:43:52;13.35;;;6.85;;
65377;SDS011;51982;51.042;13.806;2022-12-05T03:51:59;13.88;;;7.20;;
65377;SDS011;51982;51.042;13.806;2022-12-05T03:54:31;11.70;;;6.60;;
65377;SDS011;51982;51.042;13.806;2022-12-05T03:57:07;12.98;;;6.72;;
65377;SDS011;51982;51.042;13.806;2022-12-05T03:59:43;11.23;;;6.17;;
65377;SDS011;51982;51.042;13.806;2022-12-05T04:02:14;13.90;;;6.80;;
65377;SDS011;51982;51.042;13.806;2022-12-05T04:05:07;11.77;;;6.40;;
65377;SDS011;51982;51.042;13.806;2022-12-05T04:07:34;11.50;;;6.25;;
65377;SDS011;51982;51.042;13.806;2022-12-05T04:10:04;11.98;;;6.82;;
65377;SDS011;51982;51.042;13.806;2022-12-05T04:12:36;12.00;;;6.57;;
65377;SDS011;51982;51.042;13.806;2022-12-05T04:15:07;10.68;;;6.20;;
65377;SDS011;51982;51.042;13.806;2022-12-05T04:20:14;12.80;;;6.28;;
65377;SDS011;51982;51.042;13.806;2022-12-05T04:23:00;10.43;;;5.68;;
65377;SDS011;51982;51.042;13.806;2022-12-05T04:25:28;10.30;;;6.40;;
65377;SDS011;51982;51.042;13.806;2022-12-05T04:31:11;9.55;;;5.50;;
65377;SDS011;51982;51.042;13.806;2022-12-05T04:33:50;9.52;;;6.05;;
65377;SDS011;51982;51.042;13.806;2022-12-05T04:36:27;9.75;;;6.10;;
65377;SDS011;51982;51.042;13.806;2022-12-05T04:41:31;11.95;;;6.32;;
65377;SDS011;51982;51.042;13.806;2022-12-05T04:44:00;10.38;;;5.32;;
65377;SDS011;51982;51.042;13.806;2022-12-05T04:46:29;10.98;;;6.10;;
65377;SDS011;51982;51.042;13.806;2022-12-05T04:48:55;8.43;;;4.90;;
65377;SDS011;51982;51.042;13.806;2022-12-05T04:51:25;9.80;;;5.90;;
65377;SDS011;51982;51.042;13.806;2022-12-05T04:53:55;10.07;;;5.93;;
65377;SDS011;51982;51.042;13.806;2022-12-05T04:56:25;10.80;;;5.97;;
65377;SDS011;51982;51.042;13.806;2022-12-05T04:58:53;8.45;;;5.32;;
65377;SDS011;51982;51.042;13.806;2022-12-05T05:01:24;9.85;;;5.88;;
65377;SDS011;51982;51.042;13.806;2022-12-05T05:06:23;11.82;;;5.78;;
65377;SDS011;51982;51.042;13.806;2022-12-05T05:08:54;11.15;;;5.65;;
65377;SDS011;51982;51.042;13.806;2022-12-05T05:11:22;10.90;;;5.93;;
65377;SDS011;51982;51.042;13.806;2022-12-05T05:13:47;8.52;;;5.63;;
65377;SDS011;51982;51.042;13.806;2022-12-05T05:16:14;8.32;;;4.97;;
65377;SDS011;51982;51.042;13.806;2022-12-05T05:18:42;10.82;;;5.78;;
65377;SDS011;51982;51.042;13.806;2022-12-05T05:21:13;8.40;;;5.13;;
65377;SDS011;51982;51.042;13.806;2022-12-05T05:23:40;10.35;;;6.20;;
65377;SDS011;51982;51.042;13.806;2022-12-05T05:26:07;9.73;;;5.47;;
65377;SDS011;51982;51.042;13.806;2022-12-05T05:28:33;9.45;;;5.88;;
65377;SDS011;51982;51.042;13.806;2022-12-05T05:31:02;8.82;;;5.50;;
65377;SDS011;51982;51.042;13.806;2022-12-05T05:33:28;8.55;;;5.72;;
65377;SDS011;51982;51.042;13.806;2022-12-05T05:35:53;9.07;;;5.60;;
65377;SDS011;51982;51.042;13.806;2022-12-05T05:38:18;9.68;;;5.30;;
65377;SDS011;51982;51.042;13.806;2022-12-05T05:40:44;10.15;;;5.95;;
65377;SDS011;51982;51.042;13.806;2022-12-05T05:43:09;9.80;;;5.60;;
65377;SDS011;51982;51.042;13.806;2022-12-05T05:45:35;7.70;;;5.32;;
65377;SDS011;51982;51.042;13.806;2022-12-05T05:48:01;8.20;;;5.32;;
65377;SDS011;51982;51.042;13.806;2022-12-05T05:50:26;8.35;;;5.20;;
65377;SDS011;51982;51.042;13.806;2022-12-05T05:52:51;9.38;;;5.50;;
65377;SDS011;51982;51.042;13.806;2022-12-05T05:55:17;8.38;;;5.45;;
65377;SDS011;51982;51.042;13.806;2022-12-05T05:57:42;8.07;;;5.30;;
65377;SDS011;51982;51.042;13.806;2022-12-05T06:00:08;7.30;;;5.05;;
65377;SDS011;51982;51.042;13.806;2022-12-05T06:02:33;8.55;;;5.10;;
65377;SDS011;51982;51.042;13.806;2022-12-05T06:05:00;9.18;;;5.22;;
65377;SDS011;51982;51.042;13.806;2022-12-05T06:07:25;8.20;;;5.20;;
65377;SDS011;51982;51.042;13.806;2022-12-05T06:09:51;7.80;;;5.15;;
65377;SDS011;51982;51.042;13.806;2022-12-05T06:12:16;10.20;;;6.00;;
65377;SDS011;51982;51.042;13.806;2022-12-05T06:14:42;10.20;;;5.88;;
65377;SDS011;51982;51.042;13.806;2022-12-05T06:17:07;10.70;;;5.93;;
65377;SDS011;51982;51.042;13.806;2022-12-05T06:19:32;10.30;;;5.93;;
65377;SDS011;51982;51.042;13.806;2022-12-05T06:21:58;9.52;;;5.57;;
65377;SDS011;51982;51.042;13.806;2022-12-05T06:24:23;12.27;;;5.72;;
65377;SDS011;51982;51.042;13.806;2022-12-05T06:26:48;10.45;;;5.95;;
65377;SDS011;51982;51.042;13.806;2022-12-05T06:29:13;10.90;;;6.07;;
65377;SDS011;51982;51.042;13.806;2022-12-05T06:31:39;10.95;;;5.97;;
65377;SDS011;51982;51.042;13.806;2022-12-05T06:34:05;9.63;;;6.28;;
65377;SDS011;51982;51.042;13.806;2022-12-05T06:36:30;10.43;;;6.03;;
65377;SDS011;51982;51.042;13.806;2022-12-05T06:38:56;11.45;;;6.32;;
65377;SDS011;51982;51.042;13.806;2022-12-05T06:41:22;11.38;;;5.95;;
65377;SDS011;51982;51.042;13.806;2022-12-05T06:43:54;13.75;;;6.28;;
65377;SDS011;51982;51.042;13.806;2022-12-05T06:46:21;10.45;;;5.88;;
65377;SDS011;51982;51.042;13.806;2022-12-05T06:48:50;11.73;;;6.15;;
65377;SDS011;51982;51.042;13.806;2022-12-05T06:51:17;14.15;;;6.38;;
65377;SDS011;51982;51.042;13.806;2022-12-05T06:53:42;9.98;;;6.35;;
65377;SDS011;51982;51.042;13.806;2022-12-05T06:56:09;11.18;;;6.47;;
65377;SDS011;51982;51.042;13.806;2022-12-05T06:58:36;9.68;;;5.68;;
65377;SDS011;51982;51.042;13.806;2022-12-05T07:01:01;10.23;;;5.93;;
65377;SDS011;51982;51.042;13.806;2022-12-05T07:06:15;10.15;;;5.47;;
65377;SDS011;51982;51.042;13.806;2022-12-05T07:08:40;10.23;;;5.85;;
65377;SDS011;51982;51.042;13.806;2022-12-05T07:11:06;9.35;;;6.03;;
65377;SDS011;51982;51.042;13.806;2022-12-05T07:13:32;9.65;;;5.43;;
65377;SDS011;51982;51.042;13.806;2022-12-05T07:15:57;9.18;;;5.45;;
65377;SDS011;51982;51.042;13.806;2022-12-05T07:18:23;9.77;;;5.82;;
65377;SDS011;51982;51.042;13.806;2022-12-05T07:20:56;8.73;;;5.85;;
65377;SDS011;51982;51.042;13.806;2022-12-05T07:23:29;9.18;;;5.95;;
65377;SDS011;51982;51.042;13.806;2022-12-05T07:25:54;11.77;;;5.97;;
65377;SDS011;51982;51.042;13.806;2022-12-05T07:28:21;11.10;;;5.68;;
65377;SDS011;51982;51.042;13.806;2022-12-05T07:30:47;10.98;;;6.30;;
65377;SDS011;51982;51.042;13.806;2022-12-05T07:33:13;12.82;;;6.15;;
65377;SDS011;51982;51.042;13.806;2022-12-05T07:35:38;10.02;;;6.22;;
65377;SDS011;51982;51.042;13.806;2022-12-05T07:38:03;11.38;;;6.10;;
65377;SDS011;51982;51.042;13.806;2022-12-05T07:40:29;10.25;;;5.95;;
65377;SDS011;51982;51.042;13.806;2022-12-05T07:42:54;12.43;;;6.10;;
65377;SDS011;51982;51.042;13.806;2022-12-05T07:45:20;9.80;;;6.22;;
65377;SDS011;51982;51.042;13.806;2022-12-05T07:47:45;10.07;;;6.15;;
65377;SDS011;51982;51.042;13.806;2022-12-05T07:50:11;12.15;;;6.88;;
65377;SDS011;51982;51.042;13.806;2022-12-05T07:52:37;10.40;;;6.22;;
65377;SDS011;51982;51.042;13.806;2022-12-05T07:55:03;12.00;;;6.38;;
65377;SDS011;51982;51.042;13.806;2022-12-05T07:57:29;9.95;;;6.05;;
65377;SDS011;51982;51.042;13.806;2022-12-05T07:59:55;10.40;;;6.32;;
65377;SDS011;51982;51.042;13.806;2022-12-05T08:02:20;11.18;;;6.57;;
65377;SDS011;51982;51.042;13.806;2022-12-05T08:04:45;10.30;;;5.75;;
65377;SDS011;51982;51.042;13.806;2022-12-05T08:07:11;10.43;;;5.88;;
65377;SDS011;51982;51.042;13.806;2022-12-05T08:09:36;10.02;;;6.10;;
65377;SDS011;51982;51.042;13.806;2022-12-05T08:12:01;10.43;;;6.10;;
65377;SDS011;51982;51.042;13.806;2022-12-05T08:14:26;10.93;;;6.05;;
65377;SDS011;51982;51.042;13.806;2022-12-05T08:16:52;10.50;;;5.95;;
65377;SDS011;51982;51.042;13.806;2022-12-05T08:19:17;10.95;;;5.78;;
65377;SDS011;51982;51.042;13.806;2022-12-05T08:21:43;10.60;;;6.22;;
65377;SDS011;51982;51.042;13.806;2022-12-05T08:24:08;12.13;;;6.22;;
65377;SDS011;51982;51.042;13.806;2022-12-05T08:26:35;9.70;;;5.70;;
65377;SDS011;51982;51.042;13.806;2022-12-05T08:29:02;11.27;;;5.68;;
65377;SDS011;51982;51.042;13.806;2022-12-05T08:31:31;10.10;;;6.25;;
65377;SDS011;51982;51.042;13.806;2022-12-05T08:34:00;10.20;;;6.10;;
65377;SDS011;51982;51.042;13.806;2022-12-05T08:36:27;10.20;;;5.85;;
65377;SDS011;51982;51.042;13.806;2022-12-05T08:38:57;10.10;;;6.10;;
65377;SDS011;51982;51.042;13.806;2022-12-05T08:41:28;9.38;;;5.63;;
65377;SDS011;51982;51.042;13.806;2022-12-05T08:43:57;10.13;;;6.03;;
65377;SDS011;51982;51.042;13.806;2022-12-05T08:46:32;10.80;;;6.18;;
65377;SDS011;51982;51.042;13.806;2022-12-05T08:49:05;9.27;;;5.93;;
65377;SDS011;51982;51.042;13.806;2022-12-05T08:51:30;11.70;;;5.85;;
65377;SDS011;51982;51.042;13.806;2022-12-05T08:53:56;8.60;;;5.50;;
65377;SDS011;51982;51.042;13.806;2022-12-05T08:56:21;11.13;;;5.72;;
65377;SDS011;51982;51.042;13.806;2022-12-05T08:58:47;8.45;;;5.28;;
65377;SDS011;51982;51.042;13.806;2022-12-05T09:01:17;11.23;;;6.15;;
65377;SDS011;51982;51.042;13.806;2022-12-05T09:03:44;10.98;;;6.55;;
65377;SDS011;51982;51.042;13.806;2022-12-05T09:06:11;12.65;;;5.97;;
65377;SDS011;51982;51.042;13.806;2022-12-05T09:08:38;13.05;;;5.63;;
65377;SDS011;51982;51.042;13.806;2022-12-05T09:11:09;9.50;;;5.55;;
65377;SDS011;51982;51.042;13.806;2022-12-05T09:13:38;11.55;;;5.35;;
65377;SDS011;51982;51.042;13.806;2022-12-05T09:16:26;11.18;;;5.40;;
65377;SDS011;51982;51.042;13.806;2022-12-05T09:18:53;8.05;;;5.13;;
65377;SDS011;51982;51.042;13.806;2022-12-05T09:21:20;8.60;;;5.30;;
65377;SDS011;51982;51.042;13.806;2022-12-05T09:23:48;9.48;;;5.45;;
65377;SDS011;51982;51.042;13.806;2022-12-05T09:26:14;8.07;;;5.20;;
65377;SDS011;51982;51.042;13.806;2022-12-05T09:28:42;9.52;;;5.38;;
65377;SDS011;51982;51.042;13.806;2022-12-05T09:31:13;10.32;;;5.28;;
65377;SDS011;51982;51.042;13.806;2022-12-05T09:33:47;9.48;;;5.22;;
65377;SDS011;51982;51.042;13.806;2022-12-05T09:36:16;8.35;;;5.35;;
65377;SDS011;51982;51.042;13.806;2022-12-05T09:38:52;14.10;;;5.80;;
65377;SDS011;51982;51.042;13.806;2022-12-05T09:50:14;10.10;;;5.53;;
65377;SDS011;51982;51.042;13.806;2022-12-05T09:52:53;9.85;;;5.65;;
65377;SDS011;51982;51.042;13.806;2022-12-05T09:55:22;9.02;;;5.47;;
65377;SDS011;51982;51.042;13.806;2022-12-05T09:57:50;12.90;;;6.78;;
65377;SDS011;51982;51.042;13.806;2022-12-05T10:00:25;13.02;;;6.25;;
65377;SDS011;51982;51.042;13.806;2022-12-05T10:05:46;10.82;;;6.15;;
65377;SDS011;51982;51.042;13.806;2022-12-05T10:08:24;10.32;;;5.80;;
65377;SDS011;51982;51.042;13.806;2022-12-05T10:11:17;11.65;;;6.50;;
65377;SDS011;51982;51.042;13.806;2022-12-05T10:14:04;8.88;;;5.75;;
65377;SDS011;51982;51.042;13.806;2022-12-05T10:16:38;9.97;;;5.97;;
65377;SDS011;51982;51.042;13.806;2022-12-05T10:19:18;10.50;;;5.97;;
65377;SDS011;51982;51.042;13.806;2022-12-05T10:21:52;9.55;;;5.57;;
65377;SDS011;51982;51.042;13.806;2022-12-05T10:24:22;10.93;;;6.03;;
65377;SDS011;51982;51.042;13.806;2022-12-05T10:26:55;12.98;;;6.60;;
65377;SDS011;51982;51.042;13.806;2022-12-05T10:29:34;12.30;;;5.85;;
65377;SDS011;51982;51.042;13.806;2022-12-05T10:32:06;12.85;;;5.80;;
65377;SDS011;51982;51.042;13.806;2022-12-05T10:34:38;10.43;;;6.55;;
65377;SDS011;51982;51.042;13.806;2022-12-05T10:37:18;11.73;;;6.28;;
65377;SDS011;51982;51.042;13.806;2022-12-05T10:39:48;11.27;;;6.07;;
65377;SDS011;51982;51.042;13.806;2022-12-05T10:42:24;11.27;;;6.00;;
65377;SDS011;51982;51.042;13.806;2022-12-05T10:44:56;9.75;;;6.07;;
65377;SDS011;51982;51.042;13.806;2022-12-05T10:47:23;10.65;;;6.22;;
65377;SDS011;51982;51.042;13.806;2022-12-05T10:49:48;11.95;;;5.78;;
65377;SDS011;51982;51.042;13.806;2022-12-05T10:52:17;11.43;;;6.32;;
65377;SDS011;51982;51.042;13.806;2022-12-05T10:54:46;11.93;;;6.18;;
65377;SDS011;51982;51.042;13.806;2022-12-05T10:57:24;10.07;;;5.78;;
65377;SDS011;51982;51.042;13.806;2022-12-05T10:59:51;12.43;;;7.25;;
65377;SDS011;51982;51.042;13.806;2022-12-05T11:02:27;11.77;;;6.32;;
65377;SDS011;51982;51.042;13.806;2022-12-05T11:04:58;11.20;;;6.20;;
65377;SDS011;51982;51.042;13.806;2022-12-05T11:07:29;12.77;;;6.80;;
65377;SDS011;51982;51.042;13.806;2022-12-05T11:10:00;14.48;;;6.43;;
65377;SDS011;51982;51.042;13.806;2022-12-05T11:12:42;15.18;;;6.40;;
65377;SDS011;51982;51.042;13.806;2022-12-05T11:17:44;12.07;;;6.57;;
65377;SDS011;51982;51.042;13.806;2022-12-05T11:22:47;11.98;;;6.57;;
65377;SDS011;51982;51.042;13.806;2022-12-05T11:27:54;11.10;;;5.85;;
65377;SDS011;51982;51.042;13.806;2022-12-05T11:30:38;12.65;;;7.15;;
65377;SDS011;51982;51.042;13.806;2022-12-05T11:33:15;11.68;;;6.30;;
65377;SDS011;51982;51.042;13.806;2022-12-05T11:35:43;11.75;;;6.35;;
65377;SDS011;51982;51.042;13.806;2022-12-05T11:38:10;12.15;;;6.05;;
65377;SDS011;51982;51.042;13.806;2022-12-05T11:40:47;11.13;;;6.60;;
65377;SDS011;51982;51.042;13.806;2022-12-05T11:49:43;11.35;;;6.07;;
65377;SDS011;51982;51.042;13.806;2022-12-05T11:52:20;11.07;;;6.18;;
65377;SDS011;51982;51.042;13.806;2022-12-05T11:55:23;10.82;;;6.18;;
65377;SDS011;51982;51.042;13.806;2022-12-05T12:10:02;10.82;;;6.13;;
65377;SDS011;51982;51.042;13.806;2022-12-05T12:12:55;9.00;;;5.18;;
65377;SDS011;51982;51.042;13.806;2022-12-05T12:21:12;16.17;;;7.20;;
65377;SDS011;51982;51.042;13.806;2022-12-05T12:29:46;10.75;;;6.10;;
65377;SDS011;51982;51.042;13.806;2022-12-05T12:32:33;13.48;;;7.13;;
65377;SDS011;51982;51.042;13.806;2022-12-05T12:37:54;14.77;;;6.38;;
65377;SDS011;51982;51.042;13.806;2022-12-05T12:40:45;9.88;;;5.82;;
65377;SDS011;51982;51.042;13.806;2022-12-05T12:46:15;9.73;;;5.72;;
65377;SDS011;51982;51.042;13.806;2022-12-05T12:49:09;9.50;;;5.40;;
65377;SDS011;51982;51.042;13.806;2022-12-05T12:52:00;11.68;;;5.78;;
65377;SDS011;51982;51.042;13.806;2022-12-05T12:54:33;10.52;;;5.95;;
65377;SDS011;51982;51.042;13.806;2022-12-05T13:07:44;13.77;;;5.72;;
65377;SDS011;51982;51.042;13.806;2022-12-05T13:10:20;9.35;;;5.60;;
65377;SDS011;51982;51.042;13.806;2022-12-05T13:12:54;10.98;;;5.70;;
65377;SDS011;51982;51.042;13.806;2022-12-05T13:15:26;8.93;;;5.13;;
65377;SDS011;51982;51.042;13.806;2022-12-05T13:17:58;13.77;;;6.80;;
65377;SDS011;51982;51.042;13.806;2022-12-05T13:20:26;18.10;;;7.55;;
65377;SDS011;51982;51.042;13.806;2022-12-05T13:22:54;12.48;;;6.25;;
65377;SDS011;51982;51.042;13.806;2022-12-05T13:25:20;9.68;;;5.60;;
65377;SDS011;51982;51.042;13.806;2022-12-05T13:27:53;11.93;;;5.85;;
65377;SDS011;51982;51.042;13.806;2022-12-05T13:30:20;12.07;;;5.78;;
65377;SDS011;51982;51.042;13.806;2022-12-05T13:32:46;11.85;;;6.10;;
65377;SDS011;51982;51.042;13.806;2022-12-05T13:35:26;16.80;;;5.57;;
65377;SDS011;51982;51.042;13.806;2022-12-05T13:38:20;10.35;;;5.82;;
65377;SDS011;51982;51.042;13.806;2022-12-05T13:41:06;10.02;;;5.20;;
65377;SDS011;51982;51.042;13.806;2022-12-05T13:43:51;9.05;;;5.35;;
65377;SDS011;51982;51.042;13.806;2022-12-05T13:46:18;9.77;;;4.70;;
65377;SDS011;51982;51.042;13.806;2022-12-05T13:49:11;8.98;;;5.07;;
65377;SDS011;51982;51.042;13.806;2022-12-05T13:51:40;10.27;;;5.07;;
65377;SDS011;51982;51.042;13.806;2022-12-05T13:54:15;9.57;;;5.70;;
65377;SDS011;51982;51.042;13.806;2022-12-05T14:07:39;11.32;;;5.85;;
65377;SDS011;51982;51.042;13.806;2022-12-05T14:10:10;10.25;;;5.28;;
65377;SDS011;51982;51.042;13.806;2022-12-05T14:12:49;11.38;;;5.85;;
65377;SDS011;51982;51.042;13.806;2022-12-05T14:18:09;11.88;;;6.10;;
65377;SDS011;51982;51.042;13.806;2022-12-05T14:23:47;7.82;;;5.18;;
65377;SDS011;51982;51.042;13.806;2022-12-05T14:26:37;14.27;;;5.90;;
65377;SDS011;51982;51.042;13.806;2022-12-05T14:29:32;8.13;;;4.85;;
65377;SDS011;51982;51.042;13.806;2022-12-05T14:32:18;9.75;;;5.50;;
65377;SDS011;51982;51.042;13.806;2022-12-05T14:37:40;10.98;;;5.22;;
65377;SDS011;51982;51.042;13.806;2022-12-05T14:40:19;11.93;;;5.32;;
65377;SDS011;51982;51.042;13.806;2022-12-05T14:45:24;7.88;;;5.13;;
65377;SDS011;51982;51.042;13.806;2022-12-05T14:47:56;12.33;;;5.33;;
65377;SDS011;51982;51.042;13.806;2022-12-05T14:53:46;13.45;;;4.68;;
65377;SDS011;51982;51.042;13.806;2022-12-05T14:56:13;7.85;;;4.55;;
65377;SDS011;51982;51.042;13.806;2022-12-05T15:01:16;12.20;;;5.00;;
65377;SDS011;51982;51.042;13.806;2022-12-05T15:03:56;8.07;;;3.97;;
65377;SDS011;51982;51.042;13.806;2022-12-05T15:06:23;8.95;;;4.38;;
65377;SDS011;51982;51.042;13.806;2022-12-05T15:08:50;7.05;;;4.60;;
65377;SDS011;51982;51.042;13.806;2022-12-05T15:11:21;6.88;;;4.60;;
65377;SDS011;51982;51.042;13.806;2022-12-05T15:13:55;9.50;;;5.07;;
65377;SDS011;51982;51.042;13.806;2022-12-05T15:16:24;6.93;;;4.90;;
65377;SDS011;51982;51.042;13.806;2022-12-05T15:18:54;7.63;;;4.50;;
65377;SDS011;51982;51.042;13.806;2022-12-05T15:23:56;9.98;;;5.00;;
65377;SDS011;51982;51.042;13.806;2022-12-05T15:26:36;9.32;;;4.82;;
65377;SDS011;51982;51.042;13.806;2022-12-05T15:31:35;8.68;;;4.63;;
65377;SDS011;51982;51.042;13.806;2022-12-05T15:42:15;9.00;;;5.47;;
65377;SDS011;51982;51.042;13.806;2022-12-05T15:44:41;9.93;;;6.03;;
65377;SDS011;51982;51.042;13.806;2022-12-05T15:47:18;10.50;;;5.63;;
65377;SDS011;51982;51.042;13.806;2022-12-05T15:49:47;10.10;;;5.30;;
65377;SDS011;51982;51.042;13.806;2022-12-05T15:52:24;8.68;;;5.35;;
65377;SDS011;51982;51.042;13.806;2022-12-05T15:54:50;10.95;;;5.47;;
65377;SDS011;51982;51.042;13.806;2022-12-05T15:57:19;8.82;;;5.22;;
65377;SDS011;51982;51.042;13.806;2022-12-05T16:00:00;12.60;;;5.90;;
65377;SDS011;51982;51.042;13.806;2022-12-05T16:02:35;10.68;;;5.43;;
65377;SDS011;51982;51.042;13.806;2022-12-05T16:05:36;9.68;;;5.28;;
65377;SDS011;51982;51.042;13.806;2022-12-05T16:08:04;10.80;;;5.88;;
65377;SDS011;51982;51.042;13.806;2022-12-05T16:10:30;13.65;;;6.35;;
65377;SDS011;51982;51.042;13.806;2022-12-05T16:13:00;11.73;;;6.32;;
65377;SDS011;51982;51.042;13.806;2022-12-05T16:15:28;11.00;;;6.10;;
65377;SDS011;51982;51.042;13.806;2022-12-05T16:17:54;10.52;;;6.10;;
65377;SDS011;51982;51.042;13.806;2022-12-05T16:20:34;12.90;;;6.00;;
65377;SDS011;51982;51.042;13.806;2022-12-05T16:23:02;9.68;;;5.78;;
65377;SDS011;51982;51.042;13.806;2022-12-05T16:25:30;8.55;;;5.57;;
65377;SDS011;51982;51.042;13.806;2022-12-05T16:30:31;13.50;;;5.88;;
65377;SDS011;51982;51.042;13.806;2022-12-05T16:32:59;11.38;;;6.22;;
65377;SDS011;51982;51.042;13.806;2022-12-05T16:35:34;10.50;;;6.22;;
65377;SDS011;51982;51.042;13.806;2022-12-05T16:38:16;9.90;;;5.57;;
65377;SDS011;51982;51.042;13.806;2022-12-05T16:45:58;12.98;;;6.53;;
65377;SDS011;51982;51.042;13.806;2022-12-05T16:48:39;13.43;;;6.43;;
65377;SDS011;51982;51.042;13.806;2022-12-05T16:56:19;10.00;;;5.35;;
65377;SDS011;51982;51.042;13.806;2022-12-05T16:58:48;9.82;;;6.13;;
65377;SDS011;51982;51.042;13.806;2022-12-05T17:01:14;11.70;;;6.28;;
65377;SDS011;51982;51.042;13.806;2022-12-05T17:03:42;12.80;;;6.70;;
65377;SDS011;51982;51.042;13.806;2022-12-05T17:06:08;12.20;;;6.60;;
65377;SDS011;51982;51.042;13.806;2022-12-05T17:08:33;9.07;;;5.32;;
65377;SDS011;51982;51.042;13.806;2022-12-05T17:10:58;10.45;;;5.53;;
65377;SDS011;51982;51.042;13.806;2022-12-05T17:13:25;13.98;;;6.57;;
65377;SDS011;51982;51.042;13.806;2022-12-05T17:15:51;9.68;;;5.93;;
65377;SDS011;51982;51.042;13.806;2022-12-05T17:18:17;12.93;;;6.28;;
65377;SDS011;51982;51.042;13.806;2022-12-05T17:20:45;13.88;;;6.40;;
65377;SDS011;51982;51.042;13.806;2022-12-05T17:23:16;11.93;;;6.53;;
65377;SDS011;51982;51.042;13.806;2022-12-05T17:25:43;11.30;;;6.13;;
65377;SDS011;51982;51.042;13.806;2022-12-05T17:28:14;14.45;;;6.35;;